Time;durP1;ratioP1;P1;durP2;ratioP2;P2;SDS_P1;SDS_P2;PMS_P1;PMS_P2;Temp;Humidity;BMP_temperature;BMP_pressure;BME280_temperature;BME280_humidity;BME280_pressure;Samples;Min_cycle;Max_cycle;Signal;HPM_P1;HPM_P2
2023/09/07 00:03:18;;;;;;;1999.90;999.90;;;;;;;18.38;100.00;101896.81;10497463;28;20056;-69
2023/09/07 00:08:21;;;;;;;1999.90;999.90;;;;;;;18.29;100.00;101900.97;10497993;28;20052;-69
2023/09/07 00:13:23;;;;;;;1999.90;999.90;;;;;;;18.12;100.00;101894.25;10480071;28;20083;-69
2023/09/07 00:18:26;;;;;;;1999.90;999.90;;;;;;;18.13;100.00;101895.94;10497705;28;20086;-69
2023/09/07 00:23:30;;;;;;;1999.90;999.90;;;;;;;18.17;100.00;101901.84;10480125;28;20059;-69
2023/09/07 00:28:32;;;;;;;1999.90;999.90;;;;;;;18.02;100.00;101887.88;10497594;28;20049;-69
2023/09/07 00:33:35;;;;;;;1999.90;999.90;;;;;;;18.15;100.00;101895.81;10479118;28;20059;-69
2023/09/07 00:38:38;;;;;;;1999.90;999.90;;;;;;;18.03;100.00;101884.28;10479060;28;20397;-69
2023/09/07 00:43:40;;;;;;;1999.90;999.90;;;;;;;17.96;100.00;101883.06;10478785;28;20394;-69
2023/09/07 00:48:43;;;;;;;1999.90;999.90;;;;;;;17.90;100.00;101878.19;10484360;28;20045;-69
2023/09/07 00:53:46;;;;;;;1999.90;999.90;;;;;;;17.83;100.00;101870.63;10487051;28;20059;-69
2023/09/07 00:58:48;;;;;;;1999.90;999.90;;;;;;;17.84;100.00;101866.19;10504396;28;20051;-69
2023/09/07 01:03:51;;;;;;;1999.90;999.90;;;;;;;17.66;100.00;101870.16;10485796;28;20140;-69
2023/09/07 01:08:59;;;;;;;1999.90;999.90;;;;;;;17.68;100.00;101869.06;10504101;28;20080;-69
2023/09/07 01:14:01;;;;;;;1999.90;999.90;;;;;;;17.67;100.00;101866.53;10486703;28;20080;-69
2023/09/07 01:19:07;;;;;;;1999.90;999.90;;;;;;;17.67;100.00;101866.53;10503644;28;20048;-69
2023/09/07 01:24:11;;;;;;;1999.90;999.90;;;;;;;17.56;100.00;101869.94;10485881;28;20090;-69
2023/09/07 01:29:13;;;;;;;1999.90;999.90;;;;;;;17.48;100.00;101872.28;10485617;28;20052;-69
2023/09/07 01:34:16;;;;;;;1999.90;999.90;;;;;;;17.40;100.00;101865.72;10502500;28;20405;-69
2023/09/07 01:39:18;;;;;;;1999.90;999.90;;;;;;;17.43;100.00;101870.81;10502966;28;20123;-69
2023/09/07 01:44:20;;;;;;;1999.90;999.90;;;;;;;17.41;100.00;101871.84;10484479;28;20464;-69
2023/09/07 01:49:23;;;;;;;1999.90;999.90;;;;;;;17.27;100.00;101867.53;10501942;28;20041;-69
2023/09/07 01:54:25;;;;;;;1999.90;999.90;;;;;;;17.27;100.00;101868.34;10484597;28;20058;-69
2023/09/07 01:59:28;;;;;;;1999.90;999.90;;;;;;;17.25;100.00;101877.38;10500883;28;20506;-69
2023/09/07 02:04:30;;;;;;;1999.90;999.90;;;;;;;17.30;100.00;101864.66;10501180;28;20169;-69
2023/09/07 02:09:32;;;;;;;1999.90;999.90;;;;;;;17.20;100.00;101864.44;10501786;28;20071;-69
2023/09/07 02:14:35;;;;;;;1999.90;999.90;;;;;;;17.18;100.00;101869.00;10501551;28;20123;-69
2023/09/07 02:19:37;;;;;;;1999.90;999.90;;;;;;;17.11;100.00;101862.41;10500586;28;20404;-69
2023/09/07 02:24:39;;;;;;;1999.90;999.90;;;;;;;17.18;100.00;101865.50;10501161;28;20084;-69
2023/09/07 02:29:42;;;;;;;1999.90;999.90;;;;;;;17.15;100.00;101861.28;10500186;28;20051;-69
2023/09/07 02:34:44;;;;;;;1999.90;999.90;;;;;;;17.12;100.00;101865.94;10500638;28;20123;-69
2023/09/07 02:39:47;;;;;;;1999.90;999.90;;;;;;;16.97;100.00;101865.16;10500397;28;20055;-69
2023/09/07 02:44:49;;;;;;;1999.90;999.90;;;;;;;16.89;100.00;101866.53;10500238;28;20050;-69
2023/09/07 02:49:52;;;;;;;1999.90;999.90;;;;;;;16.83;100.00;101871.38;10499397;28;20051;-69
2023/09/07 02:54:54;;;;;;;1999.90;999.90;;;;;;;16.88;100.00;101867.47;10499897;28;20132;-69
2023/09/07 02:59:56;;;;;;;1999.90;999.90;;;;;;;16.85;100.00;101869.50;10499603;28;20040;-69
2023/09/07 03:04:59;;;;;;;1999.90;999.90;;;;;;;16.70;100.00;101868.69;10456270;28;20059;-69
2023/09/07 03:10:01;;;;;;;1999.90;999.90;;;;;;;16.72;100.00;101870.25;10457175;28;20052;-69
2023/09/07 03:15:05;;;;;;;1999.90;999.90;;;;;;;16.67;100.00;101863.59;10457884;28;20103;-69
2023/09/07 03:20:13;;;;;;;1999.90;999.90;;;;;;;16.64;100.00;101867.31;10456514;28;20055;-69
2023/09/07 03:25:16;;;;;;;1999.90;999.90;;;;;;;16.58;100.00;101864.22;10455816;28;20056;-69
2023/09/07 03:30:18;;;;;;;1999.90;999.90;;;;;;;16.50;100.00;101868.19;10456769;28;20493;-69
2023/09/07 03:35:21;;;;;;;1999.90;999.90;;;;;;;16.48;100.00;101858.69;10457081;28;20053;-69
2023/09/07 03:40:23;;;;;;;1999.90;999.90;;;;;;;16.50;100.00;101859.41;10455420;28;20136;-69
2023/09/07 03:45:25;;;;;;;1999.90;999.90;;;;;;;16.52;100.00;101861.03;10455125;28;20053;-69
2023/09/07 03:50:28;;;;;;;1999.90;999.90;;;;;;;16.43;100.00;101861.63;10456229;28;20414;-69
2023/09/07 03:55:39;;;;;;;1999.90;999.90;;;;;;;16.34;100.00;101856.94;10455904;28;20485;-69
2023/09/07 04:00:42;;;;;;;1999.90;999.90;;;;;;;16.39;100.00;101859.25;10458838;28;20055;-69
2023/09/07 04:05:44;;;;;;;1999.90;999.90;;;;;;;16.45;100.00;101867.63;10497390;28;20473;-69
2023/09/07 04:10:46;;;;;;;1999.90;999.90;;;;;;;16.33;100.00;101863.16;10497239;28;20482;-69
2023/09/07 04:15:49;;;;;;;1999.90;999.90;;;;;;;16.49;100.00;101866.50;10497703;28;20051;-69
2023/09/07 04:20:51;;;;;;;1999.90;999.90;;;;;;;16.43;100.00;101860.78;10480449;28;20060;-69
2023/09/07 04:26:02;;;;;;;1999.90;999.90;;;;;;;16.42;100.00;101851.13;10505217;28;20440;-69
2023/09/07 04:31:05;;;;;;;;;;;;;;;16.59;100.00;101866.72;10487681;28;20052;-69
2023/09/07 04:36:12;;;;;;;1999.90;999.90;;;;;;;16.63;100.00;101862.94;10487623;28;19921;-69
2023/09/07 04:41:14;;;;;;;1999.90;999.90;;;;;;;16.50;100.00;101854.13;10470969;28;20098;-69
2023/09/07 04:46:17;;;;;;;1999.90;999.90;;;;;;;16.40;100.00;101864.44;10486651;28;20052;-69
2023/09/07 04:51:23;;;;;;;1999.90;999.90;;;;;;;16.40;100.00;101863.63;10504836;28;20079;-69
2023/09/07 04:56:27;;;;;;;1999.90;999.90;;;;;;;16.30;100.00;101866.00;10504490;28;20132;-69
2023/09/07 05:01:31;;;;;;;1999.90;999.90;;;;;;;16.23;100.00;101864.72;10503531;28;20497;-69
2023/09/07 05:06:37;;;;;;;1999.90;999.90;;;;;;;16.23;100.00;101875.28;10503809;28;20117;-69
2023/09/07 05:11:39;;;;;;;1999.90;999.90;;;;;;;16.20;100.00;101878.94;10504068;28;20048;-69
2023/09/07 05:16:44;;;;;;;1999.90;999.90;;;;;;;16.16;100.00;101870.38;10503780;28;20051;-69
2023/09/07 05:21:47;;;;;;;1999.90;999.90;;;;;;;16.15;100.00;101881.03;10503179;28;20099;-69
2023/09/07 05:26:50;;;;;;;1999.90;999.90;;;;;;;16.23;100.00;101883.19;10503553;28;20068;-69
2023/09/07 05:31:52;;;;;;;1999.90;999.90;;;;;;;16.25;100.00;101883.94;10502675;28;20417;-69
2023/09/07 05:36:55;;;;;;;1999.90;999.90;;;;;;;16.26;100.00;101890.94;10502069;28;20063;-69
2023/09/07 05:41:57;;;;;;;1999.90;999.90;;;;;;;16.38;100.00;101892.78;10485422;28;20058;-69
2023/09/07 05:46:59;;;;;;;1999.90;999.90;;;;;;;16.52;100.00;101899.81;10502038;28;20055;-69
2023/09/07 05:52:02;;;;;;;1999.90;999.90;;;;;;;16.52;100.00;101907.72;10502556;28;20049;-69
2023/09/07 05:57:05;;;;;;;1999.90;999.90;;;;;;;16.60;100.00;101915.19;10502211;28;20075;-69
2023/09/07 06:02:07;;;;;;;1999.90;999.90;;;;;;;16.69;100.00;101915.44;10483560;28;20061;-69
2023/09/07 06:07:10;;;;;;;1999.90;999.90;;;;;;;16.96;100.00;101925.16;10501241;28;20509;-69
2023/09/07 06:12:13;;;;;;;1999.90;999.90;;;;;;;17.28;100.00;101922.13;10501629;28;20063;-69
2023/09/07 06:17:15;;;;;;;1999.90;999.90;;;;;;;17.40;100.00;101926.59;10501230;28;20051;-69
2023/09/07 06:22:18;;;;;;;1999.90;999.90;;;;;;;17.57;100.00;101914.84;10501251;28;20048;-69
2023/09/07 06:27:20;;;;;;;1999.90;999.90;;;;;;;17.73;100.00;101919.06;10501030;28;20052;-69
2023/09/07 06:32:23;;;;;;;1999.90;999.90;;;;;;;17.94;100.00;101919.41;10500201;28;20190;-69
2023/09/07 06:37:25;;;;;;;1999.90;999.90;;;;;;;18.12;100.00;101925.19;10466513;28;20044;-69
2023/09/07 06:42:28;;;;;;;1999.90;999.90;;;;;;;18.07;100.00;101928.19;10482101;28;20049;-69
2023/09/07 06:47:30;;;;;;;1999.90;999.90;;;;;;;18.11;100.00;101931.47;10499956;28;20044;-69
2023/09/07 06:52:33;;;;;;;1999.90;999.90;;;;;;;18.37;100.00;101930.44;10499948;28;20103;-69
2023/09/07 06:57:35;;;;;;;1999.90;999.90;;;;;;;18.51;100.00;101932.06;10499756;28;20123;-69
2023/09/07 07:02:38;;;;;;;1999.90;999.90;;;;;;;18.68;100.00;101930.00;10481478;28;20048;-69
2023/09/07 07:07:41;;;;;;;1999.90;999.90;;;;;;;18.81;100.00;101930.78;10499380;28;20102;-69
2023/09/07 07:12:43;;;;;;;1999.90;999.90;;;;;;;19.07;100.00;101930.66;10499305;28;20054;-69
2023/09/07 07:17:46;;;;;;;1999.90;999.90;;;;;;;19.32;100.00;101937.59;10498433;28;20124;-69
2023/09/07 07:22:48;;;;;;;1999.90;999.90;;;;;;;19.45;100.00;101938.34;10481332;28;20056;-69
2023/09/07 07:27:50;;;;;;;1999.90;999.90;;;;;;;20.29;98.63;101929.16;10481025;28;20044;-69
2023/09/07 07:32:53;;;;;;;1999.90;999.90;;;;;;;20.93;96.37;101926.56;10498687;28;20059;-69
2023/09/07 07:37:55;;;;;;;1999.90;999.90;;;;;;;21.80;91.01;101930.72;10480301;28;20558;-69
2023/09/07 07:42:57;;;;;;;1999.90;999.90;;;;;;;21.98;89.44;101927.44;10480040;28;20387;-70
2023/09/07 07:48:00;;;;;;;1999.90;999.90;;;;;;;22.78;85.04;101928.31;10497726;28;20401;-70
2023/09/07 07:53:02;;;;;;;1999.90;999.90;;;;;;;22.74;84.48;101922.38;10497598;28;20503;-70
2023/09/07 07:58:09;;;;;;;1999.90;999.90;;;;;;;23.56;81.98;101923.69;10496908;28;20087;-70
2023/09/07 08:03:12;;;;;;;1999.90;999.90;;;;;;;23.67;77.87;101921.81;10479937;28;20131;-70
2023/09/07 08:08:14;;;;;;;1999.90;999.90;;;;;;;24.22;77.16;101912.97;10497965;28;20045;-69
2023/09/07 08:13:17;;;;;;;1999.90;999.90;;;;;;;24.72;75.99;101917.84;10497809;28;20113;-70
2023/09/07 08:18:19;;;;;;;1999.90;999.90;;;;;;;24.59;73.13;101904.84;10535782;22;20109;-71
2023/09/07 08:23:23;;;;;;;1999.90;999.90;;;;;;;24.38;72.76;101904.28;10538854;28;20055;-71
2023/09/07 08:28:27;;;;;;;1999.90;999.90;;;;;;;24.95;73.20;101901.28;10538194;28;20040;-71
2023/09/07 08:33:30;;;;;;;1999.90;999.90;;;;;;;24.83;71.41;101892.66;10538122;28;20086;-71
2023/09/07 08:38:32;;;;;;;1999.90;999.90;;;;;;;25.09;71.75;101889.16;10538427;28;20052;-71
2023/09/07 08:43:46;;;;;;;1999.90;999.90;;;;;;;25.82;71.35;101886.03;10538440;28;20484;-71
2023/09/07 08:48:52;;;;;;;1999.90;999.90;;;;;;;26.47;68.65;101888.06;10537794;28;20047;-71
2023/09/07 08:53:56;;;;;;;1999.90;999.90;;;;;;;27.11;66.42;101878.50;10537101;28;20056;-71
2023/09/07 08:58:58;;;;;;;1999.90;999.90;;;;;;;27.49;66.34;101879.59;10537698;28;20048;-71
2023/09/07 09:04:01;;;;;;;1999.90;999.90;;;;;;;27.71;65.49;101871.75;10538601;28;20048;-70
2023/09/07 09:09:06;;;;;;;1999.90;999.90;;;;;;;27.78;65.30;101870.88;10540716;28;20102;-71
2023/09/07 09:14:08;;;;;;;1999.90;999.90;;;;;;;28.57;62.33;101867.22;10545895;28;20044;-71
2023/09/07 09:19:11;;;;;;;1999.90;999.90;;;;;;;28.52;58.85;101866.88;10544836;28;20378;-71
2023/09/07 09:24:15;;;;;;;1999.90;999.90;;;;;;;29.56;57.19;101871.59;10544296;28;20131;-71
2023/09/07 09:29:21;;;;;;;1999.90;999.90;;;;;;;29.14;53.34;101865.00;10544653;28;20400;-71
2023/09/07 09:34:23;;;;;;;1999.90;999.90;;;;;;;29.65;53.41;101860.50;10543280;28;20385;-71
2023/09/07 09:39:26;;;;;;;1999.90;999.90;;;;;;;28.88;52.95;101855.47;10543011;28;20503;-71
2023/09/07 09:44:29;;;;;;;1999.90;999.90;;;;;;;30.93;54.35;101840.94;10544727;28;20048;-71
2023/09/07 09:49:32;;;;;;;1999.90;999.90;;;;;;;29.69;50.54;101850.19;10542641;28;20416;-71
2023/09/07 09:54:38;;;;;;;1999.90;999.90;;;;;;;29.97;52.75;101835.97;10542477;28;20523;-71
2023/09/07 09:59:41;;;;;;;1999.90;999.90;;;;;;;31.63;49.52;101838.25;10542240;28;20404;-71
2023/09/07 10:04:43;;;;;;;1999.90;999.90;;;;;;;30.79;49.86;101825.69;10542648;28;20125;-72
2023/09/07 10:09:46;;;;;;;1999.90;999.90;;;;;;;31.56;47.81;101824.69;10541910;28;20498;-71
2023/09/07 10:14:51;;;;;;;1999.90;999.90;;;;;;;33.88;47.08;101818.41;10543328;28;20055;-71
2023/09/07 10:20:05;;;;;;;1999.90;999.90;;;;;;;33.65;45.71;101821.63;10541034;28;20515;-71
2023/09/07 10:25:21;;;;;;;1999.90;999.90;;;;;;;33.34;45.27;101815.13;10543172;28;20044;-71
2023/09/07 10:30:24;;;;;;;1999.90;999.90;;;;;;;32.66;45.29;101804.63;10541722;28;20040;-71
2023/09/07 10:35:29;;;;;;;1999.90;999.90;;;;;;;34.15;44.01;101801.91;10542052;28;20439;-72
2023/09/07 10:40:31;;;;;;;1999.90;999.90;;;;;;;34.33;43.08;101793.00;10540658;28;20563;-70
2023/09/07 10:45:34;;;;;;;1999.90;999.90;;;;;;;32.82;45.45;101801.47;10542240;28;20174;-70
2023/09/07 10:50:44;;;;;;;1999.90;999.90;;;;;;;33.46;42.67;101802.53;10541417;28;20078;-70
2023/09/07 10:55:46;;;;;;;1999.90;999.90;;;;;;;33.39;42.11;101799.03;10540711;28;20044;-71
2023/09/07 11:00:48;;;;;;;1999.90;999.90;;;;;;;33.12;42.20;101788.25;10540923;28;20048;-72
2023/09/07 11:06:21;;;;;;;1999.90;999.90;;;;;;;33.43;41.59;101788.56;10540298;28;20082;-71
2023/09/07 11:11:28;;;;;;;1999.90;999.90;;;;;;;33.98;42.90;101778.00;10525916;28;20127;-71
2023/09/07 11:16:31;;;;;;;1999.90;999.90;;;;;;;33.85;42.14;101778.09;10540578;28;20059;-71
2023/09/07 11:21:35;;;;;;;1999.90;999.90;;;;;;;34.91;41.90;101773.59;10539117;28;20094;-71
2023/09/07 11:26:45;;;;;;;1999.90;999.90;;;;;;;34.75;41.87;101768.75;10539622;28;20127;-69
2023/09/07 11:31:48;;;;;;;1999.90;999.90;;;;;;;34.75;40.33;101763.31;10539254;28;20101;-71
2023/09/07 11:36:50;;;;;;;1999.90;999.90;;;;;;;33.04;40.68;101765.97;10538998;28;20087;-73
2023/09/07 11:41:52;;;;;;;1999.90;999.90;;;;;;;33.14;42.11;101769.88;10540371;28;20048;-72
2023/09/07 11:46:55;;;;;;;1999.90;999.90;;;;;;;33.65;42.19;101764.63;10538986;28;20044;-72
2023/09/07 11:51:57;;;;;;;1999.90;999.90;;;;;;;34.71;40.52;101746.59;10540085;28;20097;-73
2023/09/07 11:57:00;;;;;;;1999.90;999.90;;;;;;;33.01;39.81;101755.53;10539875;28;20047;-73
2023/09/07 12:02:02;;;;;;;1999.90;999.90;;;;;;;33.72;41.80;101742.88;10538044;28;20062;-72
2023/09/07 12:07:05;;;;;;;1999.90;999.90;;;;;;;34.50;39.97;101736.16;10537949;28;20106;-72
2023/09/07 12:12:07;;;;;;;1999.90;999.90;;;;;;;34.77;40.92;101726.69;10538427;28;20054;-72
2023/09/07 12:17:10;;;;;;;1999.90;999.90;;;;;;;33.99;41.14;101725.31;10537528;28;20507;-72
2023/09/07 12:22:13;;;;;;;1999.90;999.90;;;;;;;33.55;41.70;101723.56;10538377;28;20075;-72
2023/09/07 12:27:15;;;;;;;1999.90;999.90;;;;;;;33.84;40.49;101719.38;10538688;28;20040;-71
2023/09/07 12:32:18;;;;;;;1999.90;999.90;;;;;;;33.67;40.00;101719.94;10537501;28;20386;-72
2023/09/07 12:37:23;;;;;;;1999.90;999.90;;;;;;;34.73;40.91;101713.75;10537233;28;20044;-72
2023/09/07 12:42:25;;;;;;;1999.90;999.90;;;;;;;33.71;41.04;101717.63;10540559;28;20079;-71
2023/09/07 12:47:28;;;;;;;1999.90;999.90;;;;;;;33.80;41.80;101705.41;10545148;28;20097;-72
2023/09/07 12:52:30;;;;;;;1999.90;999.90;;;;;;;35.31;40.82;101721.41;10545663;28;20127;-72
2023/09/07 12:57:36;;;;;;;1999.90;999.90;;;;;;;34.80;40.72;101706.34;10528412;28;20045;-72
2023/09/07 13:02:39;;;;;;;1999.90;999.90;;;;;;;34.19;41.86;101708.84;10545764;28;20485;-71
2023/09/07 13:07:43;;;;;;;1999.90;999.90;;;;;;;34.56;42.54;101705.34;10545537;28;20454;-72
2023/09/07 13:12:46;;;;;;;1999.90;999.90;;;;;;;34.28;40.38;101695.84;10545409;28;20504;-72
2023/09/07 13:17:48;;;;;;;1999.90;999.90;;;;;;;34.21;42.59;101697.78;10544864;28;20052;-72
2023/09/07 13:22:51;;;;;;;1999.90;999.90;;;;;;;35.04;42.07;101690.16;10545541;28;20082;-71
2023/09/07 13:27:54;;;;;;;1999.90;999.90;;;;;;;34.01;41.51;101681.63;10545462;28;20078;-72
2023/09/07 13:32:56;;;;;;;1999.90;999.90;;;;;;;34.83;41.87;101667.00;10527412;28;20131;-72
2023/09/07 13:37:59;;;;;;;1999.90;999.90;;;;;;;33.11;44.52;101677.22;10544952;28;20044;-72
2023/09/07 13:43:01;;;;;;;1999.90;999.90;;;;;;;34.16;43.91;101668.56;10544811;28;20076;-71
2023/09/07 13:48:04;;;;;;;1999.90;999.90;;;;;;;34.17;43.89;101666.66;10544639;28;20048;-72
2023/09/07 13:53:06;;;;;;;1999.90;999.90;;;;;;;34.50;44.42;101665.47;10542352;28;20048;-72
2023/09/07 13:58:09;;;;;;;1999.90;999.90;;;;;;;34.21;45.11;101657.00;10543601;28;20083;-72
2023/09/07 14:03:11;;;;;;;1999.90;999.90;;;;;;;32.42;45.46;101663.31;10525410;28;20126;-72
2023/09/07 14:08:13;;;;;;;1999.90;999.90;;;;;;;34.93;43.63;101664.56;10543149;28;20485;-72
2023/09/07 14:13:17;;;;;;;1999.90;999.90;;;;;;;33.68;41.97;101659.16;10543642;28;20052;-72
2023/09/07 14:18:19;;;;;;;1999.90;999.90;;;;;;;33.59;44.34;101657.75;10541294;28;20404;-72
2023/09/07 14:23:22;;;;;;;1999.90;999.90;;;;;;;33.62;43.16;101657.28;10542078;28;20127;-72
2023/09/07 14:28:24;;;;;;;1999.90;999.90;;;;;;;34.02;42.75;101650.72;10541814;28;20044;-72
2023/09/07 14:33:26;;;;;;;1999.90;999.90;;;;;;;34.91;42.23;101645.75;10542784;28;20062;-72
2023/09/07 14:38:29;;;;;;;1999.90;999.90;;;;;;;34.47;41.54;101647.75;10541906;28;20095;-72
2023/09/07 14:43:32;;;;;;;1999.90;999.90;;;;;;;32.90;44.68;101648.53;10541744;28;20117;-72
2023/09/07 14:48:34;;;;;;;1999.90;999.90;;;;;;;34.95;42.08;101637.94;10542256;28;20044;-72
2023/09/07 14:53:37;;;;;;;1999.90;999.90;;;;;;;34.48;42.47;101641.25;10541378;28;20400;-72
2023/09/07 14:58:39;;;;;;;1999.90;999.90;;;;;;;34.70;43.24;101632.59;10541795;28;20044;-72
2023/09/07 15:03:41;;;;;;;1999.90;999.90;;;;;;;35.46;42.68;101633.84;10540988;28;20135;-72
2023/09/07 15:08:44;;;;;;;1999.90;999.90;;;;;;;34.20;45.20;101639.03;10540233;28;20098;-72
2023/09/07 15:13:46;;;;;;;1999.90;999.90;;;;;;;36.13;41.47;101632.72;10540649;28;20052;-72
2023/09/07 15:18:51;;;;;;;1999.90;999.90;;;;;;;33.82;47.34;101632.69;10540354;28;20052;-72
2023/09/07 15:23:53;;;;;;;1999.90;999.90;;;;;;;34.09;44.77;101626.19;10539116;28;20077;-72
2023/09/07 15:28:56;;;;;;;1999.90;999.90;;;;;;;33.68;44.82;101623.84;10540127;28;20477;-72
2023/09/07 15:33:59;;;;;;;1999.90;999.90;;;;;;;33.06;45.27;101620.09;10538739;28;20412;-72
2023/09/07 15:39:03;;;;;;;1999.90;999.90;;;;;;;32.46;45.82;101623.88;10540367;28;20060;-72
2023/09/07 15:44:05;;;;;;;1999.90;999.90;;;;;;;33.27;46.24;101618.94;10539258;28;20058;-72
2023/09/07 15:49:08;;;;;;;1999.90;999.90;;;;;;;32.76;46.31;101617.97;10538393;28;20503;-72
2023/09/07 15:54:10;;;;;;;1999.90;999.90;;;;;;;31.75;49.78;101624.63;10538934;28;20113;-72
2023/09/07 15:59:13;;;;;;;1999.90;999.90;;;;;;;31.36;51.15;101610.03;10538744;28;20076;-72
2023/09/07 16:04:15;;;;;;;1999.90;999.90;;;;;;;31.70;51.14;101610.91;10539897;28;20056;-72
2023/09/07 16:09:18;;;;;;;1999.90;999.90;;;;;;;32.26;49.89;101615.81;10539810;28;20101;-72
2023/09/07 16:14:20;;;;;;;1999.90;999.90;;;;;;;31.33;53.26;101605.03;10539095;28;20460;-72
2023/09/07 16:19:23;;;;;;;1999.90;999.90;;;;;;;31.13;54.04;101603.13;10542437;28;20052;-72
2023/09/07 16:24:25;;;;;;;1999.90;999.90;;;;;;;30.67;56.40;101598.41;10548039;28;20048;-72
2023/09/07 16:29:28;;;;;;;1999.90;999.90;;;;;;;28.90;61.43;101600.94;10546636;28;20123;-72
2023/09/07 16:34:31;;;;;;;1999.90;999.90;;;;;;;28.92;63.34;101600.75;10546931;28;20052;-72
2023/09/07 16:39:33;;;;;;;1999.90;999.90;;;;;;;28.16;66.41;101609.91;10546205;28;20044;-72
2023/09/07 16:44:36;;;;;;;1999.90;999.90;;;;;;;27.31;71.84;101607.44;10546660;28;20060;-72
2023/09/07 16:49:38;;;;;;;1999.90;999.90;;;;;;;27.10;72.67;101599.97;10547024;28;20040;-72
2023/09/07 16:54:42;;;;;;;1999.90;999.90;;;;;;;26.75;76.22;101596.81;10546188;28;20051;-72
2023/09/07 16:59:46;;;;;;;1999.90;999.90;;;;;;;26.63;75.53;101599.91;10546563;28;20126;-72
2023/09/07 17:04:58;;;;;;;1999.90;999.90;;;;;;;25.82;81.35;101599.03;10546482;28;20093;-71
2023/09/07 17:10:01;;;;;;;1999.90;999.90;;;;;;;26.07;79.16;101605.22;10546214;28;20044;-71
2023/09/07 17:15:04;;;;;;;1999.90;999.90;;;;;;;25.91;80.92;101602.56;10544870;28;20052;-72
2023/09/07 17:20:07;;;;;;;1999.90;999.90;;;;;;;25.57;82.47;101606.25;10543862;28;20056;-71
2023/09/07 17:25:10;;;;;;;1999.90;999.90;;;;;;;25.40;84.43;101606.28;10544971;28;20054;-72
2023/09/07 17:30:13;;;;;;;1999.90;999.90;;;;;;;25.03;85.56;101606.66;10543008;28;20123;-72
2023/09/07 17:35:16;;;;;;;1999.90;999.90;;;;;;;25.01;87.21;101601.47;10545282;28;20056;-72
2023/09/07 17:40:18;;;;;;;1999.90;999.90;;;;;;;24.77;86.43;101604.09;10544910;28;20044;-72
2023/09/07 17:45:20;;;;;;;1999.90;999.90;;;;;;;24.73;87.22;101608.94;10544844;28;20048;-72
2023/09/07 17:50:23;;;;;;;1999.90;999.90;;;;;;;24.43;87.92;101607.59;10544649;28;20141;-72
2023/09/07 17:55:26;;;;;;;1999.90;999.90;;;;;;;24.33;89.40;101607.69;10543257;28;20071;-72
2023/09/07 18:00:28;;;;;;;1999.90;999.90;;;;;;;24.25;89.64;101611.16;10544152;28;20048;-72
2023/09/07 18:05:31;;;;;;;1999.90;999.90;;;;;;;23.74;92.21;101613.63;10542846;28;20131;-72
2023/09/07 18:10:34;;;;;;;1999.90;999.90;;;;;;;23.50;92.76;101616.94;10542644;28;20048;-72
2023/09/07 18:15:36;;;;;;;1999.90;999.90;;;;;;;23.55;91.74;101620.00;10542787;28;20510;-72
2023/09/07 18:20:38;;;;;;;1999.90;999.90;;;;;;;23.26;93.36;101624.72;10542712;28;20055;-72
2023/09/07 18:25:41;;;;;;;1999.90;999.90;;;;;;;22.99;97.81;101623.72;10541981;28;20051;-72
2023/09/07 18:30:44;;;;;;;1999.90;999.90;;;;;;;22.95;96.83;101633.03;10542925;28;20075;-72
2023/09/07 18:35:47;;;;;;;1999.90;999.90;;;;;;;22.83;96.80;101640.41;10542723;28;20055;-72
2023/09/07 18:40:49;;;;;;;1999.90;999.90;;;;;;;22.68;98.93;101644.50;10541403;28;20527;-72
2023/09/07 18:45:52;;;;;;;1999.90;999.90;;;;;;;22.59;98.65;101647.09;10542411;28;20131;-71
2023/09/07 18:51:00;;;;;;;1999.90;999.90;;;;;;;22.41;99.28;101635.50;10542394;28;20127;-71
2023/09/07 18:56:04;;;;;;;1999.90;999.90;;;;;;;22.41;97.85;101639.00;10540306;28;20055;-71
2023/09/07 19:01:17;;;;;;;1999.90;999.90;;;;;;;22.32;98.55;101634.53;10539969;28;20091;-72
2023/09/07 19:06:21;;;;;;;1999.90;999.90;;;;;;;22.14;99.56;101646.91;10523623;28;20093;-72
2023/09/07 19:11:23;;;;;;;1999.90;999.90;;;;;;;22.12;99.50;101644.38;10540775;28;20458;-72
2023/09/07 19:16:26;;;;;;;1999.90;999.90;;;;;;;21.89;100.00;101644.69;10540451;28;20066;-72
2023/09/07 19:21:30;;;;;;;1999.90;999.90;;;;;;;21.89;100.00;101649.19;10540357;28;20456;-72
2023/09/07 19:26:38;;;;;;;1999.90;999.90;;;;;;;21.58;100.00;101651.16;10539794;28;20058;-72
2023/09/07 19:31:41;;;;;;;1999.90;999.90;;;;;;;21.67;100.00;101650.28;10539644;28;20047;-72
2023/09/07 19:36:43;;;;;;;1999.90;999.90;;;;;;;21.45;100.00;101646.91;10538820;28;20465;-72
2023/09/07 19:41:47;;;;;;;1999.90;999.90;;;;;;;21.55;100.00;101651.41;10539728;28;20130;-72
2023/09/07 19:46:50;;;;;;;1999.90;999.90;;;;;;;21.47;100.00;101644.16;10539195;28;20048;-72
2023/09/07 19:51:52;;;;;;;1999.90;999.90;;;;;;;21.32;100.00;101649.00;10537639;28;20474;-72
2023/09/07 19:56:54;;;;;;;1999.90;999.90;;;;;;;21.33;100.00;101658.66;10538948;28;20055;-72
2023/09/07 20:01:59;;;;;;;1999.90;999.90;;;;;;;21.18;100.00;101658.19;10539759;28;20048;-72
2023/09/07 20:07:03;;;;;;;1999.90;999.90;;;;;;;20.93;100.00;101662.19;10539839;28;20131;-72
2023/09/07 20:12:06;;;;;;;1999.90;999.90;;;;;;;20.90;100.00;101660.66;10539785;28;20113;-72
2023/09/07 20:17:10;;;;;;;1999.90;999.90;;;;;;;20.77;100.00;101657.38;10539007;28;20080;-72
2023/09/07 20:22:18;;;;;;;1999.90;999.90;;;;;;;20.76;100.00;101663.66;10539555;28;20075;-72
2023/09/07 20:27:20;;;;;;;1999.90;999.90;;;;;;;20.73;100.00;101658.63;10538890;28;20155;-71
2023/09/07 20:32:22;;;;;;;1999.90;999.90;;;;;;;20.47;100.00;101664.34;10545584;22;20476;-70
2023/09/07 20:37:25;;;;;;;1999.90;999.90;;;;;;;20.51;100.00;101663.13;10539549;28;20058;-70
2023/09/07 20:42:27;;;;;;;1999.90;999.90;;;;;;;20.25;100.00;101667.16;10538277;28;20048;-70
2023/09/07 20:47:30;;;;;;;1999.90;999.90;;;;;;;20.28;100.00;101674.88;10537568;28;20052;-70
2023/09/07 20:52:32;;;;;;;1999.90;999.90;;;;;;;20.10;100.00;101669.28;10538672;28;20477;-70
2023/09/07 20:57:34;;;;;;;1999.90;999.90;;;;;;;20.11;100.00;101666.50;10539271;28;20048;-70
2023/09/07 21:02:38;;;;;;;1999.90;999.90;;;;;;;20.07;100.00;101661.56;10539053;28;20045;-70
2023/09/07 21:07:40;;;;;;;1999.90;999.90;;;;;;;20.14;100.00;101658.28;10546689;28;20058;-70
2023/09/07 21:12:43;;;;;;;1999.90;999.90;;;;;;;20.12;100.00;101641.59;10544698;28;20427;-70
2023/09/07 21:17:45;;;;;;;1999.90;999.90;;;;;;;19.88;100.00;101657.78;10545128;28;20075;-70
2023/09/07 21:22:48;;;;;;;1999.90;999.90;;;;;;;19.72;100.00;101658.22;10546039;28;20080;-70
2023/09/07 21:27:50;;;;;;;1999.90;999.90;;;;;;;19.84;100.00;101657.22;10544783;28;20054;-70
2023/09/07 21:32:53;;;;;;;1999.90;999.90;;;;;;;19.60;100.00;101656.53;10544128;28;20064;-70
2023/09/07 21:37:55;;;;;;;1999.90;999.90;;;;;;;19.58;100.00;101661.97;10527634;28;20063;-70
2023/09/07 21:42:59;;;;;;;1999.90;999.90;;;;;;;19.51;100.00;101662.63;10527580;28;20060;-70
2023/09/07 21:48:02;;;;;;;1999.90;999.90;;;;;;;19.33;100.00;101660.47;10543855;28;20048;-70
2023/09/07 21:53:04;;;;;;;1999.90;999.90;;;;;;;19.34;100.00;101658.69;10544224;28;20056;-70